Flight Track Log - Related Links

Times and Time Zones

All times are in EDT time to prevent confusion due to time zone crossing. See the SWA542 flight status page for this flight to view local times or setup timezone preferences in your user account.

Time Position Orientation Groundspeed Altitude Reporting Facility
EDT Latitude Longitude Course Direction KTS MPH feet Rate Location/Type
Fri 11:05:49 PM 41.8000 -87.7500 90° East 167 192 2,700  Level Chicago TRACON
Fri 11:06:43 PM 41.8000 -87.6833 90° East 227 261 3,300 1,810 Climbing Chicago TRACON
Fri 11:07:45 PM 41.7981 -87.6089 92° East 232 267 6,200 3,366 Climbing Chicago Center
Fri 11:08:46 PM 41.7897 -87.4769 95° East 296 341 10,200 3,246 Climbing Chicago Center
Fri 11:09:47 PM 41.7808 -87.3486 95° East 356 410 12,800 3,148 Climbing Chicago Center
Fri 11:10:48 PM 41.7706 -87.2003 95° East 398 458 16,600 3,049 Climbing Chicago Center
Fri 11:11:00 PM 41.7500 -86.9582 90° East  Level FlightAware Approximate
Fri 11:11:49 PM 41.7606 -87.0414 95° East 430 495 19,000  Level Chicago Center
Fri 11:12:50 PM 41.7636 -86.8761 89° East 445 512 21,500 2,656 Climbing Chicago Center
Fri 11:13:51 PM 41.7644 -86.7022 90° East 469 540 24,400 2,803 Climbing Chicago Center
Fri 11:14:52 PM 41.7678 -86.5239 89° East 487 560 27,200 2,262 Climbing Chicago Center
Fri 11:15:53 PM 41.7394 -86.3481 102° East 497 572 29,000 885 Climbing Chicago Center
Fri 11:16:54 PM 41.6494 -86.2111 131° Southeast 493 567 29,000  Level Chicago Center
Fri 11:17:55 PM 41.5600 -86.0731 131° Southeast 495 570 29,000  Level Chicago Center
Fri 11:18:56 PM 41.4711 -85.9381 131° Southeast 492 566 29,000  Level Chicago Center
Fri 11:19:57 PM 41.3653 -85.7739 131° Southeast 493 567 29,000  Level Chicago Center
Fri 11:20:58 PM 41.2764 -85.6397 131° Southeast 491 565 29,000  Level Chicago Center
Fri 11:21:59 PM 41.1881 -85.5042 131° Southeast 492 566 29,000  Level Chicago Center
Fri 11:23:00 PM 41.0989 -85.3706 132° Southeast 489 563 29,000  Level Chicago Center
Fri 11:24:01 PM 41.0094 -85.2369 132° Southeast 489 563 29,000 -344 Level Chicago Center
Fri 11:25:02 PM 40.9433 -85.0769 119° Southeast 503 579 28,300 -984 Descending Chicago Center
Fri 11:26:03 PM 40.8936 -84.9153 112° Southeast 486 559 27,000 -1,623 Descending Chicago Center
Fri 11:27:04 PM 40.8444 -84.7564 112° Southeast 473 544 25,000 -984 Descending Chicago Center
Fri 11:28:05 PM 40.7961 -84.6003 112° Southeast 466 536 25,000 -148 Level Chicago Center
Fri 11:29:06 PM 40.7350 -84.4047 112° Southeast 480 552 24,700 -617 Descending Chicago Center
Fri 11:29:52 PM 40.7008 -84.2819 110° East 483 556 23,900 -953 Descending Indianapolis Center
Fri 11:30:53 PM 40.6489 -84.1189 113° Southeast 478 550 23,000 -639 Descending Indianapolis Center
Fri 11:31:54 PM 40.5972 -83.9586 113° Southeast 471 542 22,600 -1,041 Descending Indianapolis Center
Fri 11:32:54 PM 40.5464 -83.8014 113° Southeast 439 505 20,900 -2,050 Descending Indianapolis Center
Fri 11:33:54 PM 40.5006 -83.6583 113° Southeast 425 489 18,500 -2,380 Descending Indianapolis Center
Fri 11:34:55 PM 40.4561 -83.5214 113° Southeast 410 472 16,100 -2,328 Descending Indianapolis Center
Fri 11:35:50 PM 40.4122 -83.4008 116° Southeast 392 451 14,000 -2,400 Descending Indianapolis Center
Fri 11:36:50 PM 40.3489 -83.2919 127° Southeast 372 428 11,500 -1,983 Descending Indianapolis Center
Fri 11:37:51 PM 40.2847 -83.1911 130° Southeast 361 415 10,000 -969 Descending Indianapolis Center
Fri 11:39:00 PM 40.2208 -83.0858 128° Southeast 337 388 9,400 -992 Descending Indianapolis Center
Fri 11:39:52 PM 40.1697 -83.0083 131° Southeast 304 350 8,000 -1,752 Descending Indianapolis Center
Fri 11:40:53 PM 40.1164 -82.9286 131° Southeast 290 334 6,100 -1,276 Descending Indianapolis Center
Fri 11:41:59 PM 40.0911 -82.8358 110° East 245 282 5,300 -942 Descending Indianapolis Center
Fri 11:42:54 PM 40.0797 -82.7583 101° East 234 269 4,200 -1,357 Descending Indianapolis Center
Fri 11:43:54 PM 40.0275 -82.7550 177° South 175 201 2,700 -793 Descending Indianapolis Center
Fri 11:44:55 PM 39.9892 -82.7644 191° South 127 146 2,600 -393 Descending Indianapolis Center
Fri 11:45:56 PM 39.9903 -82.8108 272° West 121 139 1,900 -694 Descending Indianapolis Center
Fri 11:46:56 PM 39.9917 -82.8544 272° West 121 139 1,200 -700 Descending Indianapolis Center

Login

Don't have an account? Register now (free) for customized features, flight alerts, and more!